sensor_id;sensor_type;location;lat;lon;timestamp;pressure;altitude;pressure_sealevel;temperature;humidity
69058;BME280;56128;37.534;-122.308;2023-02-10T00:01:24;102264.47;;;15.56;73.36
69058;BME280;56128;37.534;-122.308;2023-02-10T00:03:51;102262.91;;;15.40;75.40
69058;BME280;56128;37.534;-122.308;2023-02-10T00:06:18;102265.41;;;15.31;74.47
69058;BME280;56128;37.534;-122.308;2023-02-10T00:08:49;102269.75;;;15.20;77.25
69058;BME280;56128;37.534;-122.308;2023-02-10T00:11:16;102275.81;;;15.11;73.92
69058;BME280;56128;37.534;-122.308;2023-02-10T00:13:42;102273.44;;;15.06;72.57
69058;BME280;56128;37.534;-122.308;2023-02-10T00:16:29;102278.06;;;15.04;73.60
69058;BME280;56128;37.534;-122.308;2023-02-10T00:18:55;102279.50;;;14.97;72.81
69058;BME280;56128;37.534;-122.308;2023-02-10T00:21:21;102277.25;;;14.91;73.82
69058;BME280;56128;37.534;-122.308;2023-02-10T00:23:47;102281.44;;;14.82;75.04
69058;BME280;56128;37.534;-122.308;2023-02-10T00:26:14;102292.97;;;14.71;73.66
69058;BME280;56128;37.534;-122.308;2023-02-10T00:28:40;102277.72;;;14.57;78.07
69058;BME280;56128;37.534;-122.308;2023-02-10T00:31:13;102287.41;;;14.47;76.43
69058;BME280;56128;37.534;-122.308;2023-02-10T00:33:40;102295.38;;;14.36;81.14
69058;BME280;56128;37.534;-122.308;2023-02-10T00:36:09;102293.19;;;14.28;80.26
69058;BME280;56128;37.534;-122.308;2023-02-10T00:38:36;102291.31;;;14.16;79.89
69058;BME280;56128;37.534;-122.308;2023-02-10T00:41:04;102291.50;;;14.12;79.79
69058;BME280;56128;37.534;-122.308;2023-02-10T00:43:30;102284.25;;;14.00;79.30
69058;BME280;56128;37.534;-122.308;2023-02-10T00:45:57;102285.53;;;13.94;78.68
69058;BME280;56128;37.534;-122.308;2023-02-10T00:48:23;102284.25;;;14.00;77.80
69058;BME280;56128;37.534;-122.308;2023-02-10T00:50:49;102285.50;;;13.82;80.52
69058;BME280;56128;37.534;-122.308;2023-02-10T00:53:16;102290.28;;;13.76;78.54
69058;BME280;56128;37.534;-122.308;2023-02-10T00:55:42;102287.44;;;13.65;81.55
69058;BME280;56128;37.534;-122.308;2023-02-10T00:58:08;102279.03;;;13.57;79.65
69058;BME280;56128;37.534;-122.308;2023-02-10T01:00:34;102281.53;;;13.45;84.07
69058;BME280;56128;37.534;-122.308;2023-02-10T01:03:00;102285.66;;;13.37;82.25
69058;BME280;56128;37.534;-122.308;2023-02-10T01:05:27;102275.41;;;13.29;83.03
69058;BME280;56128;37.534;-122.308;2023-02-10T01:07:53;102277.22;;;13.14;86.25
69058;BME280;56128;37.534;-122.308;2023-02-10T01:10:19;102283.16;;;13.05;85.49
69058;BME280;56128;37.534;-122.308;2023-02-10T01:12:45;102287.50;;;12.93;87.15
69058;BME280;56128;37.534;-122.308;2023-02-10T01:15:12;102287.28;;;12.81;86.83
69058;BME280;56128;37.534;-122.308;2023-02-10T01:17:38;102285.94;;;12.74;87.28
69058;BME280;56128;37.534;-122.308;2023-02-10T01:20:05;102290.91;;;12.66;87.27
69058;BME280;56128;37.534;-122.308;2023-02-10T01:22:33;102283.69;;;12.52;87.74
69058;BME280;56128;37.534;-122.308;2023-02-10T01:24:59;102286.81;;;12.44;88.45
69058;BME280;56128;37.534;-122.308;2023-02-10T01:27:26;102286.00;;;12.28;91.18
69058;BME280;56128;37.534;-122.308;2023-02-10T01:29:53;102288.28;;;12.20;92.68
69058;BME280;56128;37.534;-122.308;2023-02-10T01:32:19;102277.50;;;12.05;94.41
69058;BME280;56128;37.534;-122.308;2023-02-10T01:34:45;102278.91;;;11.96;95.99
69058;BME280;56128;37.534;-122.308;2023-02-10T01:37:12;102280.63;;;11.81;97.94
69058;BME280;56128;37.534;-122.308;2023-02-10T01:39:39;102287.47;;;11.71;99.16
69058;BME280;56128;37.534;-122.308;2023-02-10T01:42:05;102295.06;;;11.63;99.18
69058;BME280;56128;37.534;-122.308;2023-02-10T01:46:59;102306.38;;;11.36;100.00
69058;BME280;56128;37.534;-122.308;2023-02-10T01:49:32;102294.59;;;11.23;99.85
69058;BME280;56128;37.534;-122.308;2023-02-10T01:52:00;102296.75;;;11.16;100.00
69058;BME280;56128;37.534;-122.308;2023-02-10T01:54:36;102301.63;;;11.08;99.72
69058;BME280;56128;37.534;-122.308;2023-02-10T01:57:04;102302.28;;;10.95;100.00
69058;BME280;56128;37.534;-122.308;2023-02-10T01:59:33;102307.34;;;10.84;100.00
69058;BME280;56128;37.534;-122.308;2023-02-10T02:02:01;102313.19;;;10.75;98.36
69058;BME280;56128;37.534;-122.308;2023-02-10T02:05:03;102309.03;;;10.69;97.63
69058;BME280;56128;37.534;-122.308;2023-02-10T02:07:29;102297.06;;;10.59;96.58
69058;BME280;56128;37.534;-122.308;2023-02-10T02:09:58;102304.78;;;10.47;97.01
69058;BME280;56128;37.534;-122.308;2023-02-10T02:15:37;102305.44;;;10.33;95.51
69058;BME280;56128;37.534;-122.308;2023-02-10T02:18:09;102311.41;;;10.21;95.19
69058;BME280;56128;37.534;-122.308;2023-02-10T02:23:52;102308.63;;;10.05;95.00
69058;BME280;56128;37.534;-122.308;2023-02-10T02:26:55;102313.44;;;9.98;94.82
69058;BME280;56128;37.534;-122.308;2023-02-10T02:32:20;102322.34;;;9.80;95.37
69058;BME280;56128;37.534;-122.308;2023-02-10T02:37:26;102327.41;;;9.67;96.08
69058;BME280;56128;37.534;-122.308;2023-02-10T02:39:55;102327.91;;;9.56;96.75
69058;BME280;56128;37.534;-122.308;2023-02-10T02:42:28;102337.84;;;9.52;97.00
69058;BME280;56128;37.534;-122.308;2023-02-10T02:44:58;102330.16;;;9.46;97.37
69058;BME280;56128;37.534;-122.308;2023-02-10T02:50:21;102322.81;;;9.31;98.30
69058;BME280;56128;37.534;-122.308;2023-02-10T02:53:14;102322.38;;;9.21;98.92
69058;BME280;56128;37.534;-122.308;2023-02-10T02:58:31;102317.53;;;9.10;100.00
69058;BME280;56128;37.534;-122.308;2023-02-10T03:01:03;102319.69;;;9.02;100.00
69058;BME280;56128;37.534;-122.308;2023-02-10T03:03:32;102319.94;;;8.96;100.00
69058;BME280;56128;37.534;-122.308;2023-02-10T03:06:00;102317.44;;;8.92;100.00
69058;BME280;56128;37.534;-122.308;2023-02-10T03:08:28;102317.69;;;8.86;100.00
69058;BME280;56128;37.534;-122.308;2023-02-10T03:10:55;102318.72;;;8.84;100.00
69058;BME280;56128;37.534;-122.308;2023-02-10T03:13:21;102311.75;;;8.80;100.00
69058;BME280;56128;37.534;-122.308;2023-02-10T03:15:47;102311.03;;;8.76;100.00
69058;BME280;56128;37.534;-122.308;2023-02-10T03:18:15;102311.03;;;8.76;100.00
69058;BME280;56128;37.534;-122.308;2023-02-10T03:20:41;102312.81;;;8.75;100.00
69058;BME280;56128;37.534;-122.308;2023-02-10T03:23:07;102311.03;;;8.76;100.00
69058;BME280;56128;37.534;-122.308;2023-02-10T03:25:34;102306.75;;;8.72;100.00
69058;BME280;56128;37.534;-122.308;2023-02-10T03:28:00;102316.63;;;8.70;100.00
69058;BME280;56128;37.534;-122.308;2023-02-10T03:30:26;102319.34;;;8.68;100.00
69058;BME280;56128;37.534;-122.308;2023-02-10T03:32:52;102315.25;;;8.61;100.00
69058;BME280;56128;37.534;-122.308;2023-02-10T03:35:20;102312.84;;;8.55;100.00
69058;BME280;56128;37.534;-122.308;2023-02-10T03:37:46;102315.56;;;8.53;100.00
69058;BME280;56128;37.534;-122.308;2023-02-10T03:40:12;102301.75;;;8.42;100.00
69058;BME280;56128;37.534;-122.308;2023-02-10T03:42:38;102307.16;;;8.40;100.00
69058;BME280;56128;37.534;-122.308;2023-02-10T03:45:05;102310.84;;;8.38;100.00
69058;BME280;56128;37.534;-122.308;2023-02-10T03:47:31;102325.09;;;8.37;100.00
69058;BME280;56128;37.534;-122.308;2023-02-10T03:49:57;102324.50;;;8.30;100.00
69058;BME280;56128;37.534;-122.308;2023-02-10T03:52:24;102314.25;;;8.19;100.00
69058;BME280;56128;37.534;-122.308;2023-02-10T03:54:50;102321.47;;;8.17;100.00
69058;BME280;56128;37.534;-122.308;2023-02-10T03:57:16;102320.91;;;8.09;100.00
69058;BME280;56128;37.534;-122.308;2023-02-10T03:59:44;102327.25;;;8.06;100.00
69058;BME280;56128;37.534;-122.308;2023-02-10T04:02:10;102318.69;;;7.98;100.00
69058;BME280;56128;37.534;-122.308;2023-02-10T04:04:37;102323.22;;;7.96;100.00
69058;BME280;56128;37.534;-122.308;2023-02-10T04:07:03;102319.22;;;7.84;100.00
69058;BME280;56128;37.534;-122.308;2023-02-10T04:09:30;102318.59;;;7.77;100.00
69058;BME280;56128;37.534;-122.308;2023-02-10T04:11:56;102321.44;;;7.73;100.00
69058;BME280;56128;37.534;-122.308;2023-02-10T04:14:22;102322.44;;;7.70;100.00
69058;BME280;56128;37.534;-122.308;2023-02-10T04:16:49;102314.69;;;7.64;100.00
69058;BME280;56128;37.534;-122.308;2023-02-10T04:19:15;102319.16;;;7.63;100.00
69058;BME280;56128;37.534;-122.308;2023-02-10T04:21:42;102310.34;;;7.61;100.00
69058;BME280;56128;37.534;-122.308;2023-02-10T04:24:08;102317.53;;;7.59;100.00
69058;BME280;56128;37.534;-122.308;2023-02-10T04:26:34;102313.31;;;7.54;100.00
69058;BME280;56128;37.534;-122.308;2023-02-10T04:29:00;102312.44;;;7.53;100.00
69058;BME280;56128;37.534;-122.308;2023-02-10T04:31:27;102319.84;;;7.45;100.00
69058;BME280;56128;37.534;-122.308;2023-02-10T04:33:53;102316.41;;;7.43;100.00
69058;BME280;56128;37.534;-122.308;2023-02-10T04:36:19;102315.59;;;7.41;100.00
69058;BME280;56128;37.534;-122.308;2023-02-10T04:38:45;102317.56;;;7.36;100.00
69058;BME280;56128;37.534;-122.308;2023-02-10T04:41:12;102317.78;;;7.29;100.00
69058;BME280;56128;37.534;-122.308;2023-02-10T04:43:38;102317.84;;;7.28;100.00
69058;BME280;56128;37.534;-122.308;2023-02-10T04:46:04;102316.41;;;7.19;100.00
69058;BME280;56128;37.534;-122.308;2023-02-10T04:48:30;102310.59;;;7.08;100.00
69058;BME280;56128;37.534;-122.308;2023-02-10T04:50:57;102311.47;;;7.08;100.00
69058;BME280;56128;37.534;-122.308;2023-02-10T04:53:23;102312.44;;;7.06;100.00
69058;BME280;56128;37.534;-122.308;2023-02-10T04:55:49;102310.84;;;7.00;100.00
69058;BME280;56128;37.534;-122.308;2023-02-10T04:58:16;102310.06;;;6.98;100.00
69058;BME280;56128;37.534;-122.308;2023-02-10T05:00:42;102304.91;;;6.93;100.00
69058;BME280;56128;37.534;-122.308;2023-02-10T05:03:08;102303.50;;;6.83;100.00
69058;BME280;56128;37.534;-122.308;2023-02-10T05:05:35;102303.44;;;6.85;100.00
69058;BME280;56128;37.534;-122.308;2023-02-10T05:08:01;102290.50;;;6.74;100.00
69058;BME280;56128;37.534;-122.308;2023-02-10T05:10:27;102300.34;;;6.72;100.00
69058;BME280;56128;37.534;-122.308;2023-02-10T05:12:53;102297.00;;;6.65;100.00
69058;BME280;56128;37.534;-122.308;2023-02-10T05:15:20;102292.88;;;6.56;100.00
69058;BME280;56128;37.534;-122.308;2023-02-10T05:17:46;102306.16;;;6.58;100.00
69058;BME280;56128;37.534;-122.308;2023-02-10T05:20:12;102313.38;;;6.54;100.00
69058;BME280;56128;37.534;-122.308;2023-02-10T05:22:39;102312.66;;;6.49;100.00
69058;BME280;56128;37.534;-122.308;2023-02-10T05:25:06;102306.72;;;6.41;100.00
69058;BME280;56128;37.534;-122.308;2023-02-10T05:27:33;102306.94;;;6.34;100.00
69058;BME280;56128;37.534;-122.308;2023-02-10T05:29:59;102303.50;;;6.31;100.00
69058;BME280;56128;37.534;-122.308;2023-02-10T05:32:26;102297.72;;;6.18;100.00
69058;BME280;56128;37.534;-122.308;2023-02-10T05:34:52;102299.34;;;6.22;100.00
69058;BME280;56128;37.534;-122.308;2023-02-10T05:37:18;102313.69;;;6.18;100.00
69058;BME280;56128;37.534;-122.308;2023-02-10T05:39:44;102310.19;;;6.16;100.00
69058;BME280;56128;37.534;-122.308;2023-02-10T05:42:11;102305.06;;;6.10;100.00
69058;BME280;56128;37.534;-122.308;2023-02-10T05:44:37;102298.13;;;6.06;100.00
69058;BME280;56128;37.534;-122.308;2023-02-10T05:47:03;102300.84;;;6.04;100.00
69058;BME280;56128;37.534;-122.308;2023-02-10T05:49:29;102299.16;;;6.01;100.00
69058;BME280;56128;37.534;-122.308;2023-02-10T05:51:56;102290.50;;;5.95;100.00
69058;BME280;56128;37.534;-122.308;2023-02-10T05:54:42;102291.34;;;5.95;100.00
69058;BME280;56128;37.534;-122.308;2023-02-10T05:57:08;102297.63;;;5.93;100.00
69058;BME280;56128;37.534;-122.308;2023-02-10T05:59:34;102297.69;;;5.91;100.00
69058;BME280;56128;37.534;-122.308;2023-02-10T06:02:01;102294.31;;;5.86;100.00
69058;BME280;56128;37.534;-122.308;2023-02-10T06:04:27;102287.34;;;5.82;100.00
69058;BME280;56128;37.534;-122.308;2023-02-10T06:06:53;102288.22;;;5.82;100.00
69058;BME280;56128;37.534;-122.308;2023-02-10T06:09:20;102276.91;;;5.76;100.00
69058;BME280;56128;37.534;-122.308;2023-02-10T06:11:50;102280.53;;;5.73;100.00
69058;BME280;56128;37.534;-122.308;2023-02-10T06:14:17;102280.63;;;5.70;100.00
69058;BME280;56128;37.534;-122.308;2023-02-10T06:16:43;102287.69;;;5.71;100.00
69058;BME280;56128;37.534;-122.308;2023-02-10T06:19:10;102276.47;;;5.61;100.00
69058;BME280;56128;37.534;-122.308;2023-02-10T06:21:36;102289.03;;;5.56;100.00
69058;BME280;56128;37.534;-122.308;2023-02-10T06:24:02;102290.91;;;5.52;100.00
69058;BME280;56128;37.534;-122.308;2023-02-10T06:26:29;102284.94;;;5.44;100.00
69058;BME280;56128;37.534;-122.308;2023-02-10T06:28:55;102296.53;;;5.42;100.00
69058;BME280;56128;37.534;-122.308;2023-02-10T06:31:24;102301.25;;;5.32;100.00
69058;BME280;56128;37.534;-122.308;2023-02-10T06:33:51;102299.53;;;5.29;100.00
69058;BME280;56128;37.534;-122.308;2023-02-10T06:36:17;102293.34;;;5.30;100.00
69058;BME280;56128;37.534;-122.308;2023-02-10T06:38:43;102293.44;;;5.27;100.00
69058;BME280;56128;37.534;-122.308;2023-02-10T06:41:10;102293.44;;;5.27;100.00
69058;BME280;56128;37.534;-122.308;2023-02-10T06:43:36;102291.69;;;5.26;100.00
69058;BME280;56128;37.534;-122.308;2023-02-10T06:46:02;102285.59;;;5.23;100.00
69058;BME280;56128;37.534;-122.308;2023-02-10T06:48:32;102291.69;;;5.26;100.00
69058;BME280;56128;37.534;-122.308;2023-02-10T06:50:59;102300.66;;;5.22;100.00
69058;BME280;56128;37.534;-122.308;2023-02-10T06:53:25;102297.16;;;5.20;100.00
69058;BME280;56128;37.534;-122.308;2023-02-10T06:55:57;102302.56;;;5.17;100.00
69058;BME280;56128;37.534;-122.308;2023-02-10T06:58:24;102290.41;;;5.10;100.00
69058;BME280;56128;37.534;-122.308;2023-02-10T07:00:51;102294.69;;;5.14;100.00
69058;BME280;56128;37.534;-122.308;2023-02-10T07:03:17;102285.34;;;5.00;100.00
69058;BME280;56128;37.534;-122.308;2023-02-10T07:05:43;102298.53;;;5.03;100.00
69058;BME280;56128;37.534;-122.308;2023-02-10T07:08:09;102294.31;;;4.96;100.00
69058;BME280;56128;37.534;-122.308;2023-02-10T07:10:39;102289.97;;;4.94;100.00
69058;BME280;56128;37.534;-122.308;2023-02-10T07:13:08;102287.38;;;4.91;100.00
69058;BME280;56128;37.534;-122.308;2023-02-10T07:15:34;102292.88;;;4.84;100.00
69058;BME280;56128;37.534;-122.308;2023-02-10T07:18:00;102300.03;;;4.81;100.00
69058;BME280;56128;37.534;-122.308;2023-02-10T07:20:27;102293.91;;;4.79;100.00
69058;BME280;56128;37.534;-122.308;2023-02-10T07:22:53;102294.06;;;4.72;100.00
69058;BME280;56128;37.534;-122.308;2023-02-10T07:25:19;102284.53;;;4.65;100.00
69058;BME280;56128;37.534;-122.308;2023-02-10T07:27:46;102290.78;;;4.63;100.00
69058;BME280;56128;37.534;-122.308;2023-02-10T07:30:12;102292.63;;;4.61;100.00
69058;BME280;56128;37.534;-122.308;2023-02-10T07:32:39;102289.13;;;4.59;100.00
69058;BME280;56128;37.534;-122.308;2023-02-10T07:35:08;102299.78;;;4.57;100.00
69058;BME280;56128;37.534;-122.308;2023-02-10T07:37:35;102292.00;;;4.51;100.00
69058;BME280;56128;37.534;-122.308;2023-02-10T07:40:01;102293.66;;;4.55;100.00
69058;BME280;56128;37.534;-122.308;2023-02-10T07:42:27;102296.34;;;4.53;100.00
69058;BME280;56128;37.534;-122.308;2023-02-10T07:44:53;102289.25;;;4.54;100.00
69058;BME280;56128;37.534;-122.308;2023-02-10T07:47:19;102295.56;;;4.50;100.00
69058;BME280;56128;37.534;-122.308;2023-02-10T07:49:46;102290.34;;;4.47;100.00
69058;BME280;56128;37.534;-122.308;2023-02-10T07:52:12;102287.66;;;4.48;100.00
69058;BME280;56128;37.534;-122.308;2023-02-10T07:54:38;102271.81;;;4.45;100.00
69058;BME280;56128;37.534;-122.308;2023-02-10T07:57:04;102274.44;;;4.47;100.00
69058;BME280;56128;37.534;-122.308;2023-02-10T07:59:31;102271.09;;;4.38;100.00
69058;BME280;56128;37.534;-122.308;2023-02-10T08:01:57;102272.72;;;4.44;100.00
69058;BME280;56128;37.534;-122.308;2023-02-10T08:04:23;102278.06;;;4.43;100.00
69058;BME280;56128;37.534;-122.308;2023-02-10T08:06:49;102278.91;;;4.45;100.00
69058;BME280;56128;37.534;-122.308;2023-02-10T08:09:16;102277.16;;;4.44;100.00
69058;BME280;56128;37.534;-122.308;2023-02-10T08:11:43;102275.50;;;4.39;100.00
69058;BME280;56128;37.534;-122.308;2023-02-10T08:14:09;102272.91;;;4.36;100.00
69058;BME280;56128;37.534;-122.308;2023-02-10T08:16:36;102269.53;;;4.31;100.00
69058;BME280;56128;37.534;-122.308;2023-02-10T08:19:02;102278.47;;;4.27;100.00
69058;BME280;56128;37.534;-122.308;2023-02-10T08:21:28;102280.22;;;4.28;100.00
69058;BME280;56128;37.534;-122.308;2023-02-10T08:23:54;102275.84;;;4.26;100.00
69058;BME280;56128;37.534;-122.308;2023-02-10T08:26:22;102266.22;;;4.23;100.00
69058;BME280;56128;37.534;-122.308;2023-02-10T08:28:49;102272.41;;;4.22;100.00
69058;BME280;56128;37.534;-122.308;2023-02-10T08:31:16;102266.28;;;4.20;100.00
69058;BME280;56128;37.534;-122.308;2023-02-10T08:33:42;102258.53;;;4.12;100.00
69058;BME280;56128;37.534;-122.308;2023-02-10T08:36:10;102261.97;;;4.16;100.00
69058;BME280;56128;37.534;-122.308;2023-02-10T08:38:37;102255.00;;;4.12;100.00
69058;BME280;56128;37.534;-122.308;2023-02-10T08:41:04;102256.88;;;4.08;100.00
69058;BME280;56128;37.534;-122.308;2023-02-10T08:43:31;102255.97;;;4.07;100.00
69058;BME280;56128;37.534;-122.308;2023-02-10T08:45:59;102256.06;;;4.04;100.00
69058;BME280;56128;37.534;-122.308;2023-02-10T08:48:26;102261.44;;;4.01;100.00
69058;BME280;56128;37.534;-122.308;2023-02-10T08:50:52;102246.47;;;3.99;100.00
69058;BME280;56128;37.534;-122.308;2023-02-10T08:53:19;102252.81;;;3.93;100.00
69058;BME280;56128;37.534;-122.308;2023-02-10T08:55:59;102251.13;;;3.89;100.00
69058;BME280;56128;37.534;-122.308;2023-02-10T08:58:26;102246.81;;;3.85;100.00
69058;BME280;56128;37.534;-122.308;2023-02-10T09:00:53;102246.81;;;3.85;100.00
69058;BME280;56128;37.534;-122.308;2023-02-10T09:03:19;102252.97;;;3.87;100.00
69058;BME280;56128;37.534;-122.308;2023-02-10T09:05:45;102242.41;;;3.85;100.00
69058;BME280;56128;37.534;-122.308;2023-02-10T09:08:17;102244.31;;;3.79;100.00
69058;BME280;56128;37.534;-122.308;2023-02-10T09:10:44;102243.50;;;3.77;100.00
69058;BME280;56128;37.534;-122.308;2023-02-10T09:13:11;102247.06;;;3.76;100.00
69058;BME280;56128;37.534;-122.308;2023-02-10T09:15:39;102247.13;;;3.72;100.00
69058;BME280;56128;37.534;-122.308;2023-02-10T09:18:05;102244.69;;;3.63;100.00
69058;BME280;56128;37.534;-122.308;2023-02-10T09:20:32;102237.78;;;3.56;100.00
69058;BME280;56128;37.534;-122.308;2023-02-10T09:22:59;102241.34;;;3.55;100.00
69058;BME280;56128;37.534;-122.308;2023-02-10T09:25:25;102237.06;;;3.49;100.00
69058;BME280;56128;37.534;-122.308;2023-02-10T09:27:52;102237.16;;;3.45;100.00
69058;BME280;56128;37.534;-122.308;2023-02-10T09:30:20;102235.41;;;3.44;100.00
69058;BME280;56128;37.534;-122.308;2023-02-10T09:32:47;102232.97;;;3.36;100.00
69058;BME280;56128;37.534;-122.308;2023-02-10T09:35:13;102242.78;;;3.31;100.00
69058;BME280;56128;37.534;-122.308;2023-02-10T09:37:40;102242.72;;;3.32;100.00
69058;BME280;56128;37.534;-122.308;2023-02-10T09:40:06;102237.56;;;3.28;100.00
69058;BME280;56128;37.534;-122.308;2023-02-10T09:45:22;102231.50;;;3.21;100.00
69058;BME280;56128;37.534;-122.308;2023-02-10T09:47:52;102228.06;;;3.19;100.00
69058;BME280;56128;37.534;-122.308;2023-02-10T09:53:23;102222.94;;;3.09;100.00
69058;BME280;56128;37.534;-122.308;2023-02-10T09:55:56;102228.16;;;3.14;100.00
69058;BME280;56128;37.534;-122.308;2023-02-10T09:58:36;102225.50;;;3.14;100.00
69058;BME280;56128;37.534;-122.308;2023-02-10T10:04:01;102221.19;;;3.10;100.00
69058;BME280;56128;37.534;-122.308;2023-02-10T10:06:33;102218.56;;;3.08;100.00
69058;BME280;56128;37.534;-122.308;2023-02-10T10:11:42;102221.16;;;3.12;100.00
69058;BME280;56128;37.534;-122.308;2023-02-10T10:14:19;102232.59;;;3.12;100.00
69058;BME280;56128;37.534;-122.308;2023-02-10T10:30:48;102214.84;;;2.75;100.00
69058;BME280;56128;37.534;-122.308;2023-02-10T10:35:44;102222.91;;;2.69;100.00
69058;BME280;56128;37.534;-122.308;2023-02-10T10:38:30;102218.53;;;2.68;100.00
69058;BME280;56128;37.534;-122.308;2023-02-10T10:41:05;102213.38;;;2.60;100.00
69058;BME280;56128;37.534;-122.308;2023-02-10T10:43:42;102207.28;;;2.56;100.00
69058;BME280;56128;37.534;-122.308;2023-02-10T10:46:23;102214.31;;;2.57;100.00
69058;BME280;56128;37.534;-122.308;2023-02-10T10:48:52;102208.31;;;2.49;100.00
69058;BME280;56128;37.534;-122.308;2023-02-10T10:51:19;102207.44;;;2.49;100.00
69058;BME280;56128;37.534;-122.308;2023-02-10T10:53:51;102209.19;;;2.48;100.00
69058;BME280;56128;37.534;-122.308;2023-02-10T10:59:20;102211.94;;;2.43;100.00
69058;BME280;56128;37.534;-122.308;2023-02-10T11:01:48;102218.91;;;2.48;100.00
69058;BME280;56128;37.534;-122.308;2023-02-10T11:04:18;102215.44;;;2.44;100.00
69058;BME280;56128;37.534;-122.308;2023-02-10T11:06:52;102197.13;;;2.33;100.00
69058;BME280;56128;37.534;-122.308;2023-02-10T11:09:31;102198.94;;;2.33;100.00
69058;BME280;56128;37.534;-122.308;2023-02-10T11:14:35;102207.03;;;2.23;100.00
69058;BME280;56128;37.534;-122.308;2023-02-10T11:17:03;102189.44;;;2.21;100.00
69058;BME280;56128;37.534;-122.308;2023-02-10T11:19:32;102200.03;;;2.19;100.00
69058;BME280;56128;37.534;-122.308;2023-02-10T11:21:59;102195.75;;;2.12;100.00
69058;BME280;56128;37.534;-122.308;2023-02-10T11:24:28;102197.63;;;2.08;100.00
69058;BME280;56128;37.534;-122.308;2023-02-10T11:27:02;102201.19;;;2.06;100.00
69058;BME280;56128;37.534;-122.308;2023-02-10T11:29:34;102194.97;;;2.08;100.00
69058;BME280;56128;37.534;-122.308;2023-02-10T11:32:01;102198.53;;;2.04;100.00
69058;BME280;56128;37.534;-122.308;2023-02-10T11:34:45;102190.66;;;2.03;100.00
69058;BME280;56128;37.534;-122.308;2023-02-10T11:37:35;102190.69;;;2.01;100.00
69058;BME280;56128;37.534;-122.308;2023-02-10T11:42:48;102192.53;;;1.94;100.00
69058;BME280;56128;37.534;-122.308;2023-02-10T11:45:24;102187.38;;;1.90;100.00
69058;BME280;56128;37.534;-122.308;2023-02-10T11:48:16;102192.66;;;1.88;100.00
69058;BME280;56128;37.534;-122.308;2023-02-10T11:50:42;102188.28;;;1.87;100.00
69058;BME280;56128;37.534;-122.308;2023-02-10T11:53:24;102186.56;;;1.85;100.00
69058;BME280;56128;37.534;-122.308;2023-02-10T11:56:24;102191.84;;;1.85;100.00
69058;BME280;56128;37.534;-122.308;2023-02-10T11:59:08;102193.66;;;1.81;100.00
69058;BME280;56128;37.534;-122.308;2023-02-10T12:01:43;102194.63;;;1.77;100.00
69058;BME280;56128;37.534;-122.308;2023-02-10T12:07:18;102184.16;;;1.69;100.00
69058;BME280;56128;37.534;-122.308;2023-02-10T12:09:58;102181.63;;;1.65;100.00
69058;BME280;56128;37.534;-122.308;2023-02-10T12:12:38;102195.66;;;1.65;100.00
69058;BME280;56128;37.534;-122.308;2023-02-10T12:23:42;102186.19;;;1.52;100.00
69058;BME280;56128;37.534;-122.308;2023-02-10T12:26:33;102171.28;;;1.51;100.00
69058;BME280;56128;37.534;-122.308;2023-02-10T12:35:01;102181.00;;;1.45;100.00
69058;BME280;56128;37.534;-122.308;2023-02-10T12:37:44;102174.75;;;1.53;100.00
69058;BME280;56128;37.534;-122.308;2023-02-10T12:40:36;102169.44;;;1.56;100.00
69058;BME280;56128;37.534;-122.308;2023-02-10T12:43:30;102171.19;;;1.55;100.00
69058;BME280;56128;37.534;-122.308;2023-02-10T12:46:25;102172.91;;;1.58;100.00
69058;BME280;56128;37.534;-122.308;2023-02-10T12:51:52;102166.78;;;1.57;100.00
69058;BME280;56128;37.534;-122.308;2023-02-10T12:57:00;102180.81;;;1.58;100.00
69058;BME280;56128;37.534;-122.308;2023-02-10T12:59:43;102176.34;;;1.63;100.00
69058;BME280;56128;37.534;-122.308;2023-02-10T13:02:20;102172.00;;;1.60;100.00
69058;BME280;56128;37.534;-122.308;2023-02-10T13:04:52;102168.50;;;1.60;100.00
69058;BME280;56128;37.534;-122.308;2023-02-10T13:07:43;102165.88;;;1.58;100.00
69058;BME280;56128;37.534;-122.308;2023-02-10T13:10:40;102165.84;;;1.60;100.00
69058;BME280;56128;37.534;-122.308;2023-02-10T13:13:19;102171.13;;;1.60;100.00
69058;BME280;56128;37.534;-122.308;2023-02-10T13:15:50;102171.13;;;1.60;100.00
69058;BME280;56128;37.534;-122.308;2023-02-10T13:18:23;102171.16;;;1.57;100.00
69058;BME280;56128;37.534;-122.308;2023-02-10T13:23:52;102161.59;;;1.51;100.00
69058;BME280;56128;37.534;-122.308;2023-02-10T13:31:59;102149.16;;;1.58;100.00
69058;BME280;56128;37.534;-122.308;2023-02-10T13:34:41;102146.50;;;1.61;100.00
69058;BME280;56128;37.534;-122.308;2023-02-10T13:37:30;102151.84;;;1.56;100.00
69058;BME280;56128;37.534;-122.308;2023-02-10T13:40:03;102150.09;;;1.55;100.00
69058;BME280;56128;37.534;-122.308;2023-02-10T13:42:36;102149.19;;;1.56;100.00
69058;BME280;56128;37.534;-122.308;2023-02-10T13:45:15;102147.41;;;1.58;100.00
69058;BME280;56128;37.534;-122.308;2023-02-10T13:57:57;102150.28;;;1.44;100.00
69058;BME280;56128;37.534;-122.308;2023-02-10T14:00:29;102153.84;;;1.40;100.00
69058;BME280;56128;37.534;-122.308;2023-02-10T14:03:33;102157.47;;;1.35;100.00
69058;BME280;56128;37.534;-122.308;2023-02-10T14:05:55;102155.75;;;1.32;100.00
69058;BME280;56128;37.534;-122.308;2023-02-10T14:08:35;102159.25;;;1.33;100.00
69058;BME280;56128;37.534;-122.308;2023-02-10T14:16:41;102170.69;;;1.32;100.00